Time;durP1;ratioP1;P1;durP2;ratioP2;P2;SDS_P1;SDS_P2;PMS_P1;PMS_P2;Temp;Humidity;BMP_temperature;BMP_pressure;BME280_temperature;BME280_humidity;BME280_pressure;Samples;Min_cycle;Max_cycle;Signal;HPM_P1;HPM_P2
2024/02/11 00:01:46;;;;;;;22.45;11.73;;;;;;;6.45;100.00;95652.47;6108523;19;20360;-75
2024/02/11 00:03:47;;;;;;;20.13;11.10;;;;;;;6.45;100.00;95652.47;6111384;19;19998;-75
2024/02/11 00:05:49;;;;;;;17.65;12.20;;;;;;;6.47;100.00;95663.03;6111855;19;20465;-75
2024/02/11 00:07:49;;;;;;;21.70;13.35;;;;;;;6.47;100.00;95654.81;6110497;19;20010;-75
2024/02/11 00:09:50;;;;;;;17.85;11.68;;;;;;;6.45;100.00;95660.72;6110324;19;20376;-75
2024/02/11 00:11:51;;;;;;;18.08;11.18;;;;;;;6.47;100.00;95663.03;6111710;19;20106;-75
2024/02/11 00:13:51;;;;;;;23.58;12.20;;;;;;;6.44;100.00;95658.38;6111070;19;20010;-75
2024/02/11 00:15:52;;;;;;;17.63;11.07;;;;;;;6.45;100.00;95662.66;6110090;19;20791;-75
2024/02/11 00:17:52;;;;;;;18.85;11.23;;;;;;;6.43;100.00;95657.59;6110750;19;20801;-75
2024/02/11 00:19:52;;;;;;;18.98;10.60;;;;;;;6.42;100.00;95656.06;6110824;19;20004;-75
2024/02/11 00:21:53;;;;;;;20.08;11.02;;;;;;;6.39;100.00;95658.88;6111776;19;20339;-75
2024/02/11 00:23:53;;;;;;;20.27;11.65;;;;;;;6.37;100.00;95651.06;6111387;19;20806;-75
2024/02/11 00:25:53;;;;;;;18.42;10.75;;;;;;;6.38;100.00;95658.09;6111079;19;19998;-75
2024/02/11 00:27:54;;;;;;;14.40;10.82;;;;;;;6.36;100.00;95654.97;6110268;19;20020;-75
2024/02/11 00:29:55;;;;;;;21.48;12.65;;;;;;;6.35;100.00;95649.91;6110703;19;20003;-75
2024/02/11 00:31:56;;;;;;;17.13;11.32;;;;;;;6.34;100.00;95651.09;6111207;19;20003;-75
2024/02/11 00:33:56;;;;;;;19.70;11.75;;;;;;;6.35;100.00;95647.94;6108075;19;20007;-75
2024/02/11 00:35:59;;;;;;;20.70;13.23;;;;;;;6.34;100.00;95640.88;6111004;19;20002;-75
2024/02/11 00:38:00;;;;;;;19.52;12.15;;;;;;;6.33;100.00;95636.59;6110027;19;19995;-75
2024/02/11 00:40:05;;;;;;;18.58;12.65;;;;;;;6.32;100.00;95645.25;6110168;19;20022;-75
2024/02/11 00:42:06;;;;;;;21.15;13.43;;;;;;;6.31;100.00;95646.47;6110878;19;20388;-75
2024/02/11 00:44:08;;;;;;;21.80;13.45;;;;;;;6.32;100.00;95648.00;6110648;19;19987;-75
2024/02/11 00:46:09;;;;;;;21.40;12.70;;;;;;;6.31;100.00;95646.47;6108928;19;20001;-75
2024/02/11 00:48:10;;;;;;;21.70;13.55;;;;;;;6.30;100.00;95642.16;6100590;19;20007;-75
2024/02/11 00:50:14;;;;;;;21.08;12.25;;;;;;;6.30;100.00;95647.66;6101763;19;19991;-75
2024/02/11 00:52:15;;;;;;;23.75;12.50;;;;;;;6.28;100.00;95647.28;6102390;19;20003;-75
2024/02/11 00:54:16;;;;;;;20.02;11.40;;;;;;;6.22;100.00;95646.22;6102965;19;20503;-75
2024/02/11 00:56:17;;;;;;;19.00;11.82;;;;;;;6.19;100.00;95654.06;6102653;19;20384;-75
2024/02/11 00:58:18;;;;;;;17.17;11.57;;;;;;;6.15;100.00;95645.13;6102006;19;20066;-75
2024/02/11 01:00:18;;;;;;;17.15;12.15;;;;;;;6.15;100.00;95642.41;6100931;19;20434;-75
2024/02/11 01:02:19;;;;;;;22.45;12.07;;;;;;;6.11;100.00;95638.91;6103059;19;20003;-75
2024/02/11 01:04:19;;;;;;;19.20;12.50;;;;;;;6.11;100.00;95629.91;6102056;19;20009;-75
2024/02/11 01:06:19;;;;;;;22.27;14.05;;;;;;;6.12;100.00;95635.00;6102496;19;20015;-75
2024/02/11 01:08:20;;;;;;;24.20;14.75;;;;;;;6.12;100.00;95642.44;6101061;19;20014;-75
2024/02/11 01:10:21;;;;;;;21.30;13.05;;;;;;;6.12;100.00;95636.94;6102014;19;20030;-75
2024/02/11 01:12:22;;;;;;;23.02;14.30;;;;;;;6.12;100.00;95632.25;6102246;19;20109;-75
2024/02/11 01:14:22;;;;;;;25.73;14.18;;;;;;;6.13;100.00;95641.28;6102028;19;20010;-75
2024/02/11 01:16:22;;;;;;;23.88;14.57;;;;;;;6.15;100.00;95636.13;6102039;19;20013;-75
2024/02/11 01:18:23;;;;;;;26.77;15.05;;;;;;;6.14;100.00;95645.56;6100462;19;20013;-75
2024/02/11 01:20:23;;;;;;;25.65;14.90;;;;;;;6.13;100.00;95646.75;6100965;19;20347;-75
2024/02/11 01:22:24;;;;;;;22.73;14.13;;;;;;;6.14;100.00;95657.31;6102026;19;20010;-75
2024/02/11 01:24:24;;;;;;;23.98;14.68;;;;;;;6.14;100.00;95649.09;6102009;19;20737;-75
2024/02/11 01:26:24;;;;;;;24.02;14.18;;;;;;;6.13;100.00;95660.47;6102074;19;20367;-75
2024/02/11 01:28:25;;;;;;;22.85;14.45;;;;;;;6.10;100.00;95653.84;6099456;19;20066;-75
2024/02/11 01:30:25;;;;;;;26.48;14.05;;;;;;;6.12;100.00;95654.22;6102244;19;20030;-75
2024/02/11 01:32:25;;;;;;;21.75;13.82;;;;;;;6.11;100.00;95660.88;6101559;19;20750;-75
2024/02/11 01:34:26;;;;;;;27.73;15.25;;;;;;;6.09;100.00;95651.53;6102315;19;20006;-75
2024/02/11 01:36:26;;;;;;;24.60;13.93;;;;;;;6.08;100.00;95655.47;6102539;19;20090;-75
2024/02/11 01:38:26;;;;;;;20.15;12.63;;;;;;;6.07;100.00;95649.19;6100685;19;20007;-75
2024/02/11 01:40:27;;;;;;;23.40;14.15;;;;;;;6.08;100.00;95658.19;6101723;19;20010;-75
2024/02/11 01:42:27;;;;;;;22.52;13.95;;;;;;;6.08;100.00;95648.00;6101309;19;20327;-75
2024/02/11 01:44:27;;;;;;;24.80;15.68;;;;;;;6.04;100.00;95647.28;6102446;19;20014;-75
2024/02/11 01:46:28;;;;;;;32.20;16.88;;;;;;;6.03;100.00;95653.94;6101374;19;20006;-75
2024/02/11 01:48:30;;;;;;;26.88;17.08;;;;;;;6.02;100.00;95644.16;6108680;19;20014;-75
2024/02/11 01:50:36;;;;;;;31.58;16.08;;;;;;;6.02;100.00;95646.13;6109708;19;20034;-75
2024/02/11 01:52:37;;;;;;;29.63;16.45;;;;;;;6.02;100.00;95648.88;6110231;19;20019;-75
2024/02/11 01:54:37;;;;;;;26.40;16.90;;;;;;;6.00;100.00;95643.81;6110454;19;20014;-74
2024/02/11 01:56:38;;;;;;;33.90;16.67;;;;;;;5.99;100.00;95642.28;6109601;19;20013;-75
2024/02/11 01:58:42;;;;;;;29.70;16.77;;;;;;;5.98;100.00;95643.47;6108986;19;20016;-75
2024/02/11 02:00:43;;;;;;;26.00;15.15;;;;;;;5.98;100.00;95640.72;6108925;19;20472;-75
2024/02/11 02:02:45;;;;;;;27.75;16.48;;;;;;;5.96;100.00;95637.63;6107409;19;20006;-75
2024/02/11 02:04:45;;;;;;;27.90;16.00;;;;;;;5.92;100.00;95634.16;6110713;19;20021;-75
2024/02/11 02:06:47;;;;;;;29.38;16.65;;;;;;;5.91;100.00;95636.13;6109380;19;20514;-75
2024/02/11 02:08:48;;;;;;;30.15;16.27;;;;;;;5.92;100.00;95636.88;6109129;19;20732;-75
2024/02/11 02:10:48;;;;;;;28.98;16.08;;;;;;;5.90;100.00;95640.06;6110001;19;20033;-75
2024/02/11 02:12:49;;;;;;;29.48;16.85;;;;;;;5.88;100.00;95633.41;6109356;19;20013;-75
2024/02/11 02:14:50;;;;;;;32.53;17.80;;;;;;;5.85;100.00;95634.22;6110605;19;20569;-75
2024/02/11 02:16:50;;;;;;;31.60;18.13;;;;;;;5.84;100.00;95638.16;6110314;19;20010;-75
2024/02/11 02:18:53;;;;;;;36.50;19.85;;;;;;;5.83;100.00;95640.13;6107067;19;20011;-76
2024/02/11 02:20:54;;;;;;;35.08;19.38;;;;;;;5.82;100.00;95643.28;6108626;19;20006;-75
2024/02/11 02:22:54;;;;;;;33.53;19.00;;;;;;;5.84;100.00;95649.13;6110685;19;20546;-75
2024/02/11 02:24:55;;;;;;;33.65;18.95;;;;;;;5.83;100.00;95644.84;6108448;19;20485;-75
2024/02/11 02:26:55;;;;;;;37.55;18.83;;;;;;;5.82;100.00;95646.81;6109596;19;20018;-75
2024/02/11 02:28:56;;;;;;;50.97;23.70;;;;;;;5.78;100.00;95648.81;6107565;19;20474;-75
2024/02/11 02:30:57;;;;;;;47.33;20.83;;;;;;;5.81;100.00;95641.75;6109763;19;20007;-75
2024/02/11 02:32:57;;;;;;;48.63;21.85;;;;;;;5.80;100.00;95640.19;6109368;19;20453;-75
2024/02/11 02:34:57;;;;;;;41.22;19.90;;;;;;;5.81;100.00;95641.75;6109246;19;20038;-76
2024/02/11 02:36:58;;;;;;;40.03;20.35;;;;;;;5.80;100.00;95640.97;6109471;19;20624;-75
2024/02/11 02:38:58;;;;;;;41.05;19.83;;;;;;;5.82;100.00;95640.56;6107716;19;20503;-75
2024/02/11 02:40:58;;;;;;;33.70;18.58;;;;;;;5.81;100.00;95644.50;6108631;19;20065;-75
2024/02/11 02:43:00;;;;;;;34.30;18.20;;;;;;;5.80;100.00;95632.75;6108868;19;20019;-75
2024/02/11 02:45:00;;;;;;;34.13;17.60;;;;;;;5.80;100.00;95638.22;6109870;19;20714;-75
2024/02/11 02:47:01;;;;;;;30.58;17.33;;;;;;;5.81;100.00;95630.78;6108600;19;20054;-75
2024/02/11 02:49:01;;;;;;;36.63;18.17;;;;;;;5.80;100.00;95638.22;6108137;19;20006;-75
2024/02/11 02:51:02;;;;;;;29.13;17.45;;;;;;;5.83;100.00;95642.09;6108534;19;20023;-75
2024/02/11 02:53:03;;;;;;;32.28;18.40;;;;;;;5.83;100.00;95650.34;6109903;19;20009;-75
2024/02/11 02:55:06;;;;;;;38.35;18.73;;;;;;;5.84;100.00;95640.91;6108678;19;20002;-75
2024/02/11 02:57:07;;;;;;;35.42;18.98;;;;;;;5.84;100.00;95646.41;6109729;19;20024;-75
2024/02/11 02:59:10;;;;;;;41.75;20.50;;;;;;;5.84;100.00;95641.69;6107425;19;20006;-75
2024/02/11 03:01:25;;;;;;;38.20;19.75;;;;;;;5.82;100.00;95641.31;6108701;19;20018;-75
2024/02/11 03:03:26;;;;;;;37.38;19.40;;;;;;;5.86;100.00;95652.22;6109832;19;20022;-75
2024/02/11 03:05:26;;;;;;;34.20;18.65;;;;;;;5.83;100.00;95644.84;6108459;19;20394;-75
2024/02/11 03:07:26;;;;;;;33.05;17.98;;;;;;;5.81;100.00;95639.00;6107147;19;20344;-75
2024/02/11 03:09:27;;;;;;;32.50;18.33;;;;;;;5.80;100.00;95640.19;6107437;19;20031;-75
2024/02/11 03:11:27;;;;;;;51.90;23.17;;;;;;;5.80;100.00;95651.16;6108893;19;20006;-75
2024/02/11 03:13:28;;;;;;;44.00;20.58;;;;;;;5.78;100.00;95650.78;6108172;19;20074;-75
2024/02/11 03:15:28;;;;;;;38.08;20.48;;;;;;;5.79;100.00;95652.34;6108197;19;20017;-75
2024/02/11 03:17:29;;;;;;;37.50;18.65;;;;;;;5.80;100.00;95645.69;6107351;19;20062;-75
2024/02/11 03:19:29;;;;;;;30.30;16.85;;;;;;;5.78;100.00;95653.53;6107570;19;20036;-75
2024/02/11 03:21:29;;;;;;;28.77;17.40;;;;;;;5.75;100.00;95657.13;6108249;19;20009;-75
2024/02/11 03:23:30;;;;;;;30.77;17.65;;;;;;;5.73;100.00;95656.75;6108817;19;20006;-75
2024/02/11 03:25:30;;;;;;;29.63;16.83;;;;;;;5.68;100.00;95660.72;6108011;19;20668;-75
2024/02/11 03:27:30;;;;;;;30.95;17.10;;;;;;;5.70;100.00;95655.59;6107419;19;20011;-75
2024/02/11 03:29:31;;;;;;;33.85;16.40;;;;;;;5.61;100.00;95652.59;6106120;19;20387;-75
2024/02/11 03:31:31;;;;;;;30.50;16.10;;;;;;;5.54;100.00;95653.47;6108359;19;20088;-75
2024/02/11 03:33:32;;;;;;;29.02;16.42;;;;;;;5.50;100.00;95661.00;6107771;19;20418;-75
2024/02/11 03:35:33;;;;;;;29.10;16.10;;;;;;;5.48;100.00;95652.41;6108233;19;20003;-75
2024/02/11 03:37:34;;;;;;;29.67;15.95;;;;;;;5.49;100.00;95653.19;6107186;19;20007;-75
2024/02/11 03:39:35;;;;;;;28.83;16.95;;;;;;;5.48;100.00;95654.38;6106413;19;20003;-75
2024/02/11 03:41:36;;;;;;;38.57;17.57;;;;;;;5.46;100.00;95643.81;6108108;19;20018;-75
2024/02/11 03:43:36;;;;;;;30.77;16.00;;;;;;;5.47;100.00;95648.13;6107280;19;20018;-74
2024/02/11 03:45:37;;;;;;;29.55;15.50;;;;;;;5.47;100.00;95650.84;6107865;19;20026;-75
2024/02/11 03:47:41;;;;;;;33.00;16.67;;;;;;;5.47;100.00;95641.84;6107044;19;20647;-75
2024/02/11 03:49:41;;;;;;;33.63;17.65;;;;;;;5.50;100.00;95650.03;6106739;19;20040;-74
2024/02/11 03:51:41;;;;;;;32.83;17.55;;;;;;;5.53;100.00;95654.66;6107435;19;20006;-75
2024/02/11 03:53:42;;;;;;;32.47;16.90;;;;;;;5.56;100.00;95655.81;6106685;19;20002;-75
2024/02/11 03:55:43;;;;;;;28.70;17.00;;;;;;;5.55;100.00;95655.06;6107475;19;20006;-75
2024/02/11 03:57:43;;;;;;;27.25;15.50;;;;;;;5.55;100.00;95643.31;6105618;19;20481;-75
2024/02/11 03:59:45;;;;;;;30.80;16.73;;;;;;;5.53;100.00;95649.19;6107271;19;20351;-75
2024/02/11 04:01:46;;;;;;;29.40;17.07;;;;;;;5.53;100.00;95648.41;6107757;19;20002;-75
2024/02/11 04:03:46;;;;;;;27.35;16.15;;;;;;;5.51;100.00;95654.31;6107037;19;20051;-75
2024/02/11 04:05:48;;;;;;;26.67;15.82;;;;;;;5.51;100.00;95648.84;6107493;19;20340;-75
2024/02/11 04:07:50;;;;;;;30.37;17.40;;;;;;;5.49;100.00;95644.97;6105591;19;20018;-75
2024/02/11 04:09:52;;;;;;;31.15;17.48;;;;;;;5.46;100.00;95652.06;6106867;19;20006;-75
2024/02/11 04:11:54;;;;;;;;;;;;;;;5.50;100.00;95638.28;6108078;19;20026;-75
2024/02/11 04:13:54;;;;;;;38.22;20.52;;;;;;;5.51;100.00;95643.34;6107324;19;19923;-75
2024/02/11 04:15:56;;;;;;;40.78;20.58;;;;;;;5.53;100.00;95648.41;6106039;19;20006;-75
2024/02/11 04:18:07;;;;;;;39.95;19.52;;;;;;;5.54;100.00;95639.00;6105274;19;20010;-75
2024/02/11 04:20:14;;;;;;;40.05;19.20;;;;;;;5.55;100.00;95644.09;6106020;19;20086;-75
2024/02/11 04:22:15;;;;;;;34.08;19.00;;;;;;;5.53;100.00;95634.69;6106756;19;20451;-75
2024/02/11 04:24:16;;;;;;;43.00;21.10;;;;;;;5.53;100.00;95635.47;6106029;19;20003;-74
2024/02/11 04:26:17;;;;;;;40.97;19.50;;;;;;;5.53;100.00;95642.94;6109796;19;19994;-75
2024/02/11 04:28:20;;;;;;;37.50;20.85;;;;;;;5.51;100.00;95637.09;6111311;19;19994;-74
2024/02/11 04:30:20;;;;;;;44.10;21.92;;;;;;;5.59;100.00;95642.06;6111603;19;20003;-75
2024/02/11 04:32:22;;;;;;;45.22;22.85;;;;;;;5.58;100.00;95637.75;6111944;19;20463;-75
2024/02/11 04:34:22;;;;;;;43.72;21.20;;;;;;;5.58;100.00;95635.03;6111560;19;20010;-75
2024/02/11 04:36:24;;;;;;;36.30;20.10;;;;;;;5.57;100.00;95636.22;6113298;19;20339;-75
2024/02/11 04:38:27;;;;;;;38.23;20.77;;;;;;;5.54;100.00;95641.72;6109612;19;20011;-75
2024/02/11 04:40:28;;;;;;;38.70;18.75;;;;;;;5.51;100.00;95648.84;6112445;19;20003;-74
2024/02/11 04:42:30;;;;;;;36.33;19.85;;;;;;;5.49;100.00;95645.72;6111395;19;20566;-75
2024/02/11 04:44:31;;;;;;;37.55;19.65;;;;;;;5.48;100.00;95657.13;6112389;19;20323;-74
2024/02/11 04:46:34;;;;;;;42.28;21.15;;;;;;;5.49;100.00;95662.19;6101188;19;20007;-75
2024/02/11 04:48:36;;;;;;;37.42;20.17;;;;;;;5.48;100.00;95665.34;6108254;19;20082;-75
2024/02/11 04:50:37;;;;;;;40.05;21.65;;;;;;;5.49;100.00;95653.19;6110795;19;20410;-74
2024/02/11 04:52:39;;;;;;;35.05;18.85;;;;;;;5.48;100.00;95660.63;6111842;19;20006;-74
2024/02/11 04:54:39;;;;;;;38.38;19.73;;;;;;;5.49;100.00;95662.19;6111552;19;20332;-75
2024/02/11 04:56:41;;;;;;;37.03;20.08;;;;;;;5.45;100.00;95646.97;6109602;19;20372;-75
2024/02/11 04:58:41;;;;;;;34.40;19.90;;;;;;;5.44;100.00;95656.38;6109648;19;20375;-75
2024/02/11 05:00:42;;;;;;;41.05;21.73;;;;;;;5.43;100.00;95655.59;6110302;19;20078;-75
2024/02/11 05:02:44;;;;;;;35.95;18.48;;;;;;;5.46;100.00;95656.72;6111515;19;20011;-75
2024/02/11 05:04:47;;;;;;;43.33;22.05;;;;;;;5.43;100.00;95661.09;6111660;19;20328;-75
2024/02/11 05:06:48;;;;;;;37.08;17.42;;;;;;;5.44;100.00;95659.13;6108875;19;20014;-75
2024/02/11 05:08:48;;;;;;;38.10;19.95;;;;;;;5.42;100.00;95654.06;6110244;19;20582;-75
2024/02/11 05:10:51;;;;;;;33.65;17.92;;;;;;;5.39;100.00;95657.63;6111964;19;20020;-75
2024/02/11 05:12:51;;;;;;;36.88;20.00;;;;;;;5.37;100.00;95665.47;6111813;19;20020;-75
2024/02/11 05:14:52;;;;;;;36.03;19.00;;;;;;;5.35;100.00;95662.38;6111364;19;20549;-75
2024/02/11 05:16:55;;;;;;;32.85;18.25;;;;;;;5.33;100.00;95665.53;6111997;19;20074;-75
2024/02/11 05:18:55;;;;;;;37.03;19.55;;;;;;;5.38;100.00;95658.03;6110085;19;20006;-75
2024/02/11 05:20:56;;;;;;;36.33;18.48;;;;;;;5.34;100.00;95653.38;6110501;19;20535;-75
2024/02/11 05:22:59;;;;;;;36.90;18.95;;;;;;;5.37;100.00;95659.97;6112174;19;20029;-75
2024/02/11 05:24:59;;;;;;;32.63;16.85;;;;;;;5.35;100.00;95659.63;6111373;19;20010;-75
2024/02/11 05:27:03;;;;;;;35.70;18.67;;;;;;;5.34;100.00;95663.56;6111818;19;20034;-75
2024/02/11 05:29:05;;;;;;;31.20;18.42;;;;;;;5.35;100.00;95662.38;6110223;19;20007;-75
2024/02/11 05:31:07;;;;;;;30.13;17.35;;;;;;;5.37;100.00;95673.69;6110316;19;20014;-75
2024/02/11 05:33:08;;;;;;;33.80;18.10;;;;;;;5.42;100.00;95675.22;6111809;19;20328;-75
2024/02/11 05:35:09;;;;;;;33.28;17.90;;;;;;;5.43;100.00;95682.25;6111048;19;20015;-75
2024/02/11 05:37:09;;;;;;;34.90;17.92;;;;;;;5.43;100.00;95685.00;6110496;19;21150;-75
2024/02/11 05:39:10;;;;;;;29.95;17.20;;;;;;;5.47;100.00;95688.47;6107907;19;21290;-75
2024/02/11 05:41:10;;;;;;;33.80;17.13;;;;;;;5.45;100.00;95679.88;6110800;19;20533;-75
2024/02/11 05:43:13;;;;;;;37.45;18.50;;;;;;;5.46;100.00;95695.94;6110665;19;20336;-74
2024/02/11 05:45:13;;;;;;;34.17;18.35;;;;;;;5.44;100.00;95687.31;6111485;19;20259;-74
2024/02/11 05:47:13;;;;;;;33.22;18.00;;;;;;;5.46;100.00;95687.69;6105523;19;20967;-75
2024/02/11 05:49:13;;;;;;;34.35;18.25;;;;;;;5.49;100.00;95695.09;6100912;19;20009;-75
2024/02/11 05:51:14;;;;;;;32.33;18.67;;;;;;;5.52;100.00;95710.72;6102575;19;20015;-75
2024/02/11 05:53:15;;;;;;;35.67;19.48;;;;;;;5.55;100.00;95707.16;6102980;19;20439;-75
2024/02/11 05:55:16;;;;;;;36.83;19.08;;;;;;;5.59;100.00;95709.84;6103134;19;20003;-75
2024/02/11 05:57:17;;;;;;;31.83;17.67;;;;;;;5.60;100.00;95703.16;6102121;19;20025;-75
2024/02/11 05:59:17;;;;;;;43.20;20.80;;;;;;;5.63;100.00;95705.09;6100792;19;20007;-75
2024/02/11 06:01:18;;;;;;;36.13;18.65;;;;;;;5.60;100.00;95695.72;6102832;19;20013;-75
2024/02/11 06:03:20;;;;;;;34.97;19.30;;;;;;;5.63;100.00;95710.59;6101934;19;20578;-75
2024/02/11 06:05:22;;;;;;;35.10;18.40;;;;;;;5.63;100.00;95718.81;6101550;19;20363;-75
2024/02/11 06:07:22;;;;;;;34.92;18.70;;;;;;;5.64;100.00;95721.16;6101364;19;19994;-75
2024/02/11 06:09:24;;;;;;;36.35;19.25;;;;;;;5.65;100.00;95719.19;6102292;19;20072;-74
2024/02/11 06:11:25;;;;;;;36.70;19.67;;;;;;;5.66;100.00;95717.97;6102470;19;20007;-75
2024/02/11 06:13:26;;;;;;;40.77;20.20;;;;;;;5.67;100.00;95713.28;6102309;19;20026;-75
2024/02/11 06:15:27;;;;;;;42.85;21.42;;;;;;;5.68;100.00;95717.56;6101935;19;20002;-75
2024/02/11 06:17:28;;;;;;;41.38;20.73;;;;;;;5.67;100.00;95718.75;6101034;19;20006;-75
2024/02/11 06:19:29;;;;;;;41.20;20.80;;;;;;;5.68;100.00;95729.31;6100506;19;19999;-75
2024/02/11 06:21:29;;;;;;;44.22;21.60;;;;;;;5.68;100.00;95736.78;6101864;19;20295;-75
2024/02/11 06:23:30;;;;;;;45.95;21.40;;;;;;;5.71;100.00;95750.44;6102244;19;20246;-75
2024/02/11 06:25:30;;;;;;;41.55;21.42;;;;;;;5.73;100.00;95739.84;6102068;19;20087;-75
2024/02/11 06:27:32;;;;;;;41.50;20.25;;;;;;;5.73;100.00;95739.06;6100149;19;20007;-74
2024/02/11 06:29:32;;;;;;;44.72;22.85;;;;;;;5.75;100.00;95744.91;6100950;19;20006;-75
2024/02/11 06:31:33;;;;;;;43.95;22.83;;;;;;;5.75;100.00;95736.69;6102111;19;20003;-75
2024/02/11 06:33:33;;;;;;;42.05;21.85;;;;;;;5.73;100.00;95739.06;6100064;19;20002;-75
2024/02/11 06:35:33;;;;;;;44.00;21.73;;;;;;;5.75;100.00;95739.41;6101062;19;20572;-75
2024/02/11 06:37:34;;;;;;;44.45;22.52;;;;;;;5.73;100.00;95744.56;6098850;19;20007;-75
2024/02/11 06:39:37;;;;;;;44.90;22.25;;;;;;;5.73;100.00;95750.03;6100780;19;20539;-75
2024/02/11 06:41:37;;;;;;;49.78;23.30;;;;;;;5.75;100.00;95755.88;6101721;19;20493;-75
2024/02/11 06:43:40;;;;;;;40.85;22.13;;;;;;;5.72;100.00;95749.25;6100850;19;20014;-75
2024/02/11 06:45:46;;;;;;;48.70;22.88;;;;;;;5.74;100.00;95757.06;6101425;19;20003;-75
2024/02/11 06:47:46;;;;;;;49.00;24.98;;;;;;;5.75;100.00;95756.66;6104172;19;20016;-75
2024/02/11 06:49:47;;;;;;;47.40;23.65;;;;;;;5.73;100.00;95767.28;6108281;19;20015;-75
2024/02/11 06:51:47;;;;;;;51.20;24.00;;;;;;;5.72;100.00;95753.97;6109139;19;20074;-74
2024/02/11 06:53:49;;;;;;;55.30;24.67;;;;;;;5.73;100.00;95761.78;6109830;19;20463;-75
2024/02/11 06:55:49;;;;;;;45.28;22.63;;;;;;;5.72;100.00;95764.94;6108270;19;20010;-75
2024/02/11 06:57:51;;;;;;;45.92;22.45;;;;;;;5.73;100.00;95761.00;6107509;19;20609;-75
2024/02/11 06:59:52;;;;;;;48.35;23.52;;;;;;;5.75;100.00;95769.59;6108444;19;20011;-75
2024/02/11 07:01:56;;;;;;;45.03;22.10;;;;;;;5.74;100.00;95762.56;6107860;19;20007;-75
2024/02/11 07:03:57;;;;;;;49.63;22.98;;;;;;;5.76;100.00;95763.69;6108289;19;20013;-75
2024/02/11 07:05:57;;;;;;;46.38;21.67;;;;;;;5.76;100.00;95771.16;6107645;19;20506;-75
2024/02/11 07:08:00;;;;;;;48.92;21.92;;;;;;;5.83;100.00;95760.09;6107212;19;20459;-75
2024/02/11 07:10:01;;;;;;;47.78;21.63;;;;;;;5.85;100.00;95768.66;6107877;19;20324;-75
2024/02/11 07:12:02;;;;;;;45.17;21.13;;;;;;;5.86;100.00;95775.72;6107742;19;20003;-75
2024/02/11 07:14:02;;;;;;;51.72;23.17;;;;;;;5.84;100.00;95778.09;6108481;19;20062;-74
2024/02/11 07:16:07;;;;;;;45.25;22.85;;;;;;;5.85;100.00;95774.94;6107452;19;20023;-74
2024/02/11 07:18:08;;;;;;;48.58;22.83;;;;;;;5.82;100.00;95772.25;6105821;19;20009;-75
2024/02/11 07:20:11;;;;;;;52.60;23.95;;;;;;;5.84;100.00;95773.38;6108189;19;20006;-74
2024/02/11 07:22:13;;;;;;;56.47;26.20;;;;;;;5.90;100.00;95771.78;6107377;19;20006;-74
2024/02/11 07:24:13;;;;;;;67.55;33.22;;;;;;;5.90;100.00;95770.97;6107919;19;20003;-75
2024/02/11 07:26:14;;;;;;;66.43;37.22;;;;;;;5.87;100.00;95772.56;6107698;19;19999;-75
2024/02/11 07:28:15;;;;;;;61.88;28.40;;;;;;;5.90;100.00;95769.03;6106148;19;20009;-74
2024/02/11 07:30:16;;;;;;;63.33;29.80;;;;;;;5.96;100.00;95763.88;6105824;19;20085;-75
2024/02/11 07:32:16;;;;;;;54.67;25.67;;;;;;;5.99;100.00;95765.78;6106563;19;20016;-75
2024/02/11 07:34:16;;;;;;;57.00;26.08;;;;;;;5.95;100.00;95767.78;6106151;19;20006;-75
2024/02/11 07:36:18;;;;;;;59.20;26.65;;;;;;;5.97;100.00;95776.41;6105933;19;20013;-74
2024/02/11 07:38:18;;;;;;;57.65;25.88;;;;;;;5.99;100.00;95776.75;6104980;19;20626;-75
2024/02/11 07:40:18;;;;;;;55.63;24.88;;;;;;;6.02;100.00;95786.88;6107429;19;20034;-75
2024/02/11 07:42:20;;;;;;;57.38;25.80;;;;;;;6.03;100.00;95785.69;6105098;19;19999;-75
2024/02/11 07:44:21;;;;;;;56.33;26.25;;;;;;;6.03;100.00;95776.69;6107381;19;21791;-75
2024/02/11 07:46:21;;;;;;;53.50;25.63;;;;;;;6.08;100.00;95770.75;6105209;19;20086;-75
2024/02/11 07:48:22;;;;;;;57.88;26.25;;;;;;;6.06;100.00;95778.63;6105135;19;20912;-75
2024/02/11 07:50:22;;;;;;;51.03;23.85;;;;;;;6.09;100.00;95769.56;6105431;19;20451;-75
2024/02/11 07:52:22;;;;;;;54.40;25.15;;;;;;;6.11;100.00;95770.69;6108041;19;20006;-75
2024/02/11 07:54:23;;;;;;;51.90;24.40;;;;;;;6.11;100.00;95772.66;6108016;19;20007;-75
2024/02/11 07:56:25;;;;;;;52.90;25.55;;;;;;;6.14;100.00;95780.84;6105837;19;20014;-74
2024/02/11 07:58:25;;;;;;;49.13;23.13;;;;;;;6.18;100.00;95772.56;6106396;19;20017;-75
2024/02/11 08:00:26;;;;;;;49.03;23.90;;;;;;;6.18;100.00;95778.81;6108793;19;20467;-75
2024/02/11 08:02:26;;;;;;;48.63;24.13;;;;;;;6.22;100.00;95778.00;6112200;19;20839;-75
2024/02/11 08:04:27;;;;;;;51.42;23.35;;;;;;;6.22;100.00;95781.53;6113391;19;20024;-75
2024/02/11 08:06:27;;;;;;;51.83;22.08;;;;;;;6.20;100.00;95787.41;6111853;19;20014;-74
2024/02/11 08:08:27;;;;;;;50.55;23.25;;;;;;;6.24;100.00;95783.84;6112780;19;20327;-75
2024/02/11 08:10:28;;;;;;;51.13;23.02;;;;;;;6.23;100.00;95780.34;6111863;19;20006;-75
2024/02/11 08:12:28;;;;;;;45.90;22.65;;;;;;;6.29;100.00;95794.34;6112952;19;20352;-75
2024/02/11 08:14:29;;;;;;;44.35;21.25;;;;;;;6.28;100.00;95793.56;6113998;19;20010;-75
2024/02/11 08:16:30;;;;;;;42.30;21.40;;;;;;;6.38;100.00;95800.13;6111867;19;20040;-75
2024/02/11 08:18:30;;;;;;;48.83;24.40;;;;;;;6.43;100.00;95807.88;6111511;19;20262;-75
2024/02/11 08:20:31;;;;;;;42.83;22.00;;;;;;;6.46;100.00;95804.31;6111509;19;20018;-75
2024/02/11 08:22:31;;;;;;;45.83;24.27;;;;;;;6.48;100.00;95810.94;6113650;19;20081;-75
2024/02/11 08:24:33;;;;;;;48.50;22.55;;;;;;;6.50;100.00;95799.53;6112458;19;20074;-75
2024/02/11 08:26:33;;;;;;;39.40;20.67;;;;;;;6.55;100.00;95803.78;6112846;19;20007;-75
2024/02/11 08:28:34;;;;;;;44.30;21.73;;;;;;;6.57;100.00;95799.44;6112278;19;20018;-74
2024/02/11 08:30:34;;;;;;;42.42;20.95;;;;;;;6.63;100.00;95805.22;6111344;19;20014;-75
2024/02/11 08:32:35;;;;;;;41.13;21.23;;;;;;;6.65;100.00;95798.13;6112571;19;20017;-75
2024/02/11 08:34:36;;;;;;;41.85;20.52;;;;;;;6.72;100.00;95802.72;6112336;19;20094;-75
2024/02/11 08:36:37;;;;;;;41.72;20.00;;;;;;;6.80;100.00;95793.19;6112828;19;20052;-75
2024/02/11 08:38:37;;;;;;;40.50;20.50;;;;;;;6.85;100.00;95798.19;6110515;19;20344;-75
2024/02/11 08:40:38;;;;;;;37.10;19.65;;;;;;;6.91;100.00;95806.72;6108463;19;20468;-74
2024/02/11 08:42:41;;;;;;;40.78;19.83;;;;;;;6.92;100.00;95800.81;6112326;19;19998;-75
2024/02/11 08:44:42;;;;;;;37.63;19.73;;;;;;;7.00;100.00;95804.22;6111349;19;20027;-75
2024/02/11 08:46:42;;;;;;;36.10;19.15;;;;;;;7.03;100.00;95809.66;6111248;19;20007;-75
2024/02/11 08:48:42;;;;;;;35.60;20.02;;;;;;;7.05;100.00;95809.25;6108943;19;20010;-75
2024/02/11 08:50:43;;;;;;;38.15;18.80;;;;;;;7.07;100.00;95806.06;6108546;19;20011;-75
2024/02/11 08:52:43;;;;;;;35.92;19.35;;;;;;;7.09;100.00;95812.69;6108841;19;20456;-75
2024/02/11 08:54:44;;;;;;;35.50;18.73;;;;;;;7.12;100.00;95814.63;6111549;19;20553;-75
2024/02/11 08:56:44;;;;;;;34.95;17.65;;;;;;;7.15;100.00;95813.00;6111899;19;20027;-75
2024/02/11 08:58:44;;;;;;;36.38;19.10;;;;;;;7.16;100.00;95812.56;6107421;19;20010;-75
2024/02/11 09:00:45;;;;;;;37.30;19.38;;;;;;;7.20;100.00;95807.81;6109710;19;20002;-75
2024/02/11 09:02:46;;;;;;;39.15;19.90;;;;;;;7.24;100.00;95819.50;6111269;19;20015;-75
2024/02/11 09:04:46;;;;;;;36.80;18.48;;;;;;;7.26;100.00;95813.56;6110713;19;20485;-75
2024/02/11 09:06:49;;;;;;;34.55;19.88;;;;;;;7.34;100.00;95820.50;6110410;19;20015;-75
2024/02/11 09:08:50;;;;;;;35.83;19.30;;;;;;;7.37;100.00;95816.91;6109260;19;20003;-75
2024/02/11 09:10:50;;;;;;;33.92;18.00;;;;;;;7.44;100.00;95824.25;6109468;19;21080;-75
2024/02/11 09:12:51;;;;;;;39.38;18.08;;;;;;;7.47;100.00;95824.19;6110510;19;20019;-75
2024/02/11 09:14:51;;;;;;;35.65;20.42;;;;;;;7.48;100.00;95825.75;6110350;19;20363;-75
2024/02/11 09:16:52;;;;;;;35.08;18.27;;;;;;;7.52;100.00;95833.91;6110731;19;20304;-75